createdAt,value
2017-08-26T00:01:33.612Z,9.17
2017-08-26T00:04:02.514Z,8.30
2017-08-26T00:06:31.441Z,8.90
2017-08-26T00:09:01.204Z,8.90
2017-08-26T00:11:30.183Z,11.00
2017-08-26T00:13:59.083Z,9.57
2017-08-26T00:16:28.012Z,9.57
2017-08-26T00:18:57.671Z,9.23
2017-08-26T00:21:26.554Z,8.97
2017-08-26T00:23:55.435Z,9.77
2017-08-26T00:26:24.320Z,10.00
2017-08-26T00:28:53.309Z,10.10
2017-08-26T00:31:22.251Z,10.10
2017-08-26T00:33:51.211Z,10.07
2017-08-26T00:36:20.545Z,11.33
2017-08-26T00:38:49.747Z,9.70
2017-08-26T00:41:18.697Z,10.20
2017-08-26T00:43:47.563Z,9.60
2017-08-26T00:46:17.239Z,10.30
2017-08-26T00:48:46.189Z,10.97
2017-08-26T00:51:15.177Z,11.30
2017-08-26T00:53:44.087Z,10.00
2017-08-26T00:56:13.087Z,11.07
2017-08-26T00:58:42.062Z,10.00
2017-08-26T01:01:10.986Z,9.50
2017-08-26T01:03:39.880Z,10.50
2017-08-26T01:06:08.804Z,9.87
2017-08-26T01:08:37.770Z,9.50
2017-08-26T01:11:07.032Z,9.73
2017-08-26T01:13:35.956Z,9.43
2017-08-26T01:16:04.867Z,10.30
2017-08-26T01:18:34.594Z,11.07
2017-08-26T01:21:03.550Z,11.20
2017-08-26T01:23:32.459Z,12.07
2017-08-26T01:26:02.231Z,11.90
2017-08-26T01:28:31.923Z,10.80
2017-08-26T01:31:01.055Z,12.60
2017-08-26T01:33:29.942Z,12.20
2017-08-26T01:35:58.837Z,13.50
2017-08-26T01:38:27.778Z,12.67
2017-08-26T01:40:56.688Z,11.60
2017-08-26T01:43:25.601Z,12.73
2017-08-26T01:45:54.504Z,11.60
2017-08-26T01:48:24.186Z,13.30
2017-08-26T01:50:53.326Z,13.47
2017-08-26T01:53:22.618Z,13.00
2017-08-26T01:55:51.593Z,14.40
2017-08-26T01:58:21.005Z,13.23
2017-08-26T02:00:49.958Z,14.10
2017-08-26T02:03:18.878Z,14.97
2017-08-26T02:05:47.781Z,14.63
2017-08-26T02:08:16.657Z,17.40
2017-08-26T02:10:45.944Z,14.70
2017-08-26T02:13:14.839Z,16.17
2017-08-26T02:15:43.749Z,15.00
2017-08-26T02:18:12.712Z,16.90
2017-08-26T02:20:41.623Z,15.97
2017-08-26T02:23:10.516Z,17.50
2017-08-26T02:25:39.555Z,17.37
2017-08-26T02:28:08.966Z,15.93
2017-08-26T02:30:37.897Z,18.20
2017-08-26T02:33:06.955Z,17.17
2017-08-26T02:35:36.246Z,18.33
2017-08-26T02:38:05.189Z,17.90
2017-08-26T02:40:34.155Z,18.70
2017-08-26T02:43:03.335Z,19.23
2017-08-26T02:45:32.217Z,18.90
2017-08-26T02:48:02.104Z,20.63
2017-08-26T02:50:31.058Z,18.60
2017-08-26T02:53:00.300Z,18.13
2017-08-26T02:55:29.403Z,18.80
2017-08-26T02:57:59.083Z,18.97
2017-08-26T03:00:28.278Z,19.47
2017-08-26T03:02:57.481Z,19.53
2017-08-26T03:05:26.566Z,19.83
2017-08-26T03:07:55.454Z,20.60
2017-08-26T03:10:24.404Z,17.67
2017-08-26T03:12:53.766Z,21.63
2017-08-26T03:15:22.815Z,21.73
2017-08-26T03:17:51.866Z,20.33
2017-08-26T03:20:21.201Z,21.90
2017-08-26T03:22:50.112Z,22.00
2017-08-26T03:25:19.014Z,22.50
2017-08-26T03:27:48.214Z,24.57
2017-08-26T03:30:17.104Z,22.80
2017-08-26T03:32:46.246Z,23.63
2017-08-26T03:35:15.882Z,25.60
2017-08-26T03:37:44.790Z,23.90
2017-08-26T03:40:13.706Z,25.27
2017-08-26T03:42:42.633Z,25.63
2017-08-26T03:45:11.570Z,23.53
2017-08-26T03:47:40.464Z,23.63
2017-08-26T03:50:09.351Z,25.60
2017-08-26T03:52:38.230Z,24.57
2017-08-26T03:55:07.285Z,24.73
2017-08-26T03:57:37.259Z,24.97
2017-08-26T04:00:06.211Z,26.60
2017-08-26T04:02:35.103Z,26.27
2017-08-26T04:05:03.995Z,23.53
2017-08-26T04:07:32.955Z,23.77
2017-08-26T04:10:02.858Z,26.03
2017-08-26T04:12:31.748Z,24.07
2017-08-26T04:15:01.766Z,25.80
2017-08-26T04:17:30.657Z,26.97
2017-08-26T04:20:00.348Z,26.20
2017-08-26T04:22:30.138Z,26.10
2017-08-26T04:24:59.022Z,25.87
2017-08-26T04:27:27.958Z,25.83
2017-08-26T04:29:56.891Z,23.67
2017-08-26T04:32:25.916Z,23.80
2017-08-26T04:34:55.035Z,24.50
2017-08-26T04:37:24.026Z,25.03
2017-08-26T04:39:53.441Z,23.67
2017-08-26T04:42:22.534Z,24.70
2017-08-26T04:44:51.526Z,24.80
2017-08-26T04:47:21.851Z,24.90
2017-08-26T04:49:51.600Z,23.87
2017-08-26T04:52:21.235Z,25.00
2017-08-26T04:54:50.127Z,23.00
2017-08-26T04:57:19.070Z,23.30
2017-08-26T04:59:48.001Z,23.37
2017-08-26T05:02:16.917Z,24.67
2017-08-26T05:04:45.962Z,23.23
2017-08-26T05:07:14.834Z,24.10
2017-08-26T05:09:44.493Z,22.73
2017-08-26T05:12:13.393Z,24.13
2017-08-26T05:14:42.290Z,23.43
2017-08-26T05:17:11.285Z,28.43
2017-08-26T05:19:40.247Z,25.33
2017-08-26T05:22:09.166Z,24.93
2017-08-26T05:24:38.160Z,24.20
2017-08-26T05:27:07.020Z,23.53
2017-08-26T05:29:35.954Z,24.20
2017-08-26T05:32:05.690Z,23.13
2017-08-26T05:34:34.581Z,23.20
2017-08-26T05:37:03.532Z,24.17
2017-08-26T05:39:32.461Z,26.90
2017-08-26T05:42:01.365Z,27.07
2017-08-26T05:44:30.278Z,25.73
2017-08-26T05:46:59.457Z,27.37
2017-08-26T05:49:28.304Z,28.00
2017-08-26T05:51:57.994Z,27.90
2017-08-26T05:54:26.875Z,26.40
2017-08-26T05:56:55.928Z,26.63
2017-08-26T05:59:25.622Z,27.33
2017-08-26T06:01:54.612Z,26.60
2017-08-26T06:04:23.631Z,27.33
2017-08-26T06:06:52.515Z,24.80
2017-08-26T06:09:21.454Z,27.10
2017-08-26T06:11:50.327Z,28.57
2017-08-26T06:14:19.397Z,27.90
2017-08-26T06:16:48.330Z,27.60
2017-08-26T06:19:17.281Z,29.30
2017-08-26T06:21:46.219Z,28.70
2017-08-26T06:24:15.706Z,28.57
2017-08-26T06:26:44.629Z,28.00
2017-08-26T06:29:13.578Z,27.60
2017-08-26T06:31:42.505Z,29.07
2017-08-26T06:34:11.450Z,27.70
2017-08-26T06:36:40.303Z,28.27
2017-08-26T06:39:09.200Z,26.40
2017-08-26T06:41:38.119Z,24.77
2017-08-26T06:44:07.023Z,23.70
2017-08-26T06:46:35.959Z,22.97
2017-08-26T06:49:04.883Z,23.97
2017-08-26T06:51:33.830Z,22.30
2017-08-26T06:54:03.210Z,23.47
2017-08-26T06:56:32.118Z,23.63
2017-08-26T06:59:01.127Z,22.20
2017-08-26T07:01:30.033Z,21.27
2017-08-26T07:03:58.994Z,22.50
2017-08-26T07:06:27.911Z,21.10
2017-08-26T07:08:56.814Z,23.10
2017-08-26T07:11:26.541Z,21.37
2017-08-26T07:13:55.483Z,21.80
2017-08-26T07:16:24.445Z,19.43
2017-08-26T07:18:53.450Z,19.20
2017-08-26T07:21:22.383Z,20.30
2017-08-26T07:23:52.111Z,19.93
2017-08-26T07:26:21.085Z,18.70
2017-08-26T07:28:51.570Z,19.57
2017-08-26T07:33:53.600Z,20.73
2017-08-26T07:36:22.674Z,19.30
2017-08-26T07:38:51.614Z,20.30
2017-08-26T07:41:21.626Z,18.67
2017-08-26T07:43:51.317Z,18.50
2017-08-26T07:46:20.204Z,17.60
2017-08-26T07:48:51.162Z,18.87
2017-08-26T07:51:20.753Z,18.03
2017-08-26T07:53:50.430Z,17.80
2017-08-26T07:56:19.973Z,16.17
2017-08-26T07:58:49.826Z,15.13
2017-08-26T08:01:19.311Z,15.67
2017-08-26T08:03:48.263Z,15.13
2017-08-26T08:06:17.235Z,13.80
2017-08-26T08:08:46.159Z,14.33
2017-08-26T08:11:16.390Z,13.47
2017-08-26T08:13:45.886Z,14.80
2017-08-26T08:16:15.556Z,12.23
2017-08-26T08:18:44.655Z,13.23
2017-08-26T08:21:13.814Z,12.43
2017-08-26T08:23:43.189Z,10.47
2017-08-26T08:26:12.207Z,9.90
2017-08-26T08:28:41.265Z,9.10
2017-08-26T08:31:10.970Z,7.47
2017-08-26T08:33:40.014Z,6.07
2017-08-26T08:36:09.336Z,5.10
2017-08-26T08:38:38.207Z,5.50
2017-08-26T08:41:07.151Z,4.50
2017-08-26T08:43:36.478Z,5.20
2017-08-26T08:46:05.644Z,4.67
2017-08-26T08:48:36.663Z,5.97
2017-08-26T08:51:05.671Z,5.10
2017-08-26T08:53:35.506Z,5.37
2017-08-26T08:56:04.738Z,5.77
2017-08-26T08:58:34.033Z,5.90
2017-08-26T09:01:03.089Z,5.80
2017-08-26T09:03:32.140Z,6.40
2017-08-26T09:06:01.602Z,5.67
2017-08-26T09:08:31.936Z,5.20
2017-08-26T09:11:02.580Z,5.20
2017-08-26T09:13:31.721Z,5.80
2017-08-26T09:16:01.531Z,4.87
2017-08-26T09:18:30.489Z,4.80
2017-08-26T09:20:59.510Z,5.67
2017-08-26T09:23:28.485Z,4.60
2017-08-26T09:25:57.438Z,3.53
2017-08-26T09:28:27.168Z,3.90
2017-08-26T09:30:56.106Z,3.87
2017-08-26T09:33:25.095Z,2.70
2017-08-26T09:35:54.085Z,2.73
2017-08-26T09:38:23.896Z,3.20
2017-08-26T09:40:52.928Z,3.47
2017-08-26T09:43:22.574Z,2.70
2017-08-26T09:45:51.630Z,3.27
2017-08-26T09:48:21.633Z,2.77
2017-08-26T09:50:50.778Z,2.70
2017-08-26T09:53:20.482Z,2.57
2017-08-26T09:55:50.148Z,2.90
2017-08-26T09:58:19.207Z,2.80
2017-08-26T10:00:48.318Z,2.57
2017-08-26T10:03:17.396Z,3.30
2017-08-26T10:05:46.451Z,3.10
2017-08-26T10:08:15.398Z,3.03
2017-08-26T10:10:45.329Z,3.13
2017-08-26T10:13:14.302Z,3.30
2017-08-26T10:15:43.248Z,3.40
2017-08-26T10:18:12.211Z,3.07
2017-08-26T10:20:41.693Z,2.40
2017-08-26T10:23:10.669Z,2.93
2017-08-26T10:25:39.831Z,2.30
2017-08-26T10:28:09.098Z,2.50
2017-08-26T10:30:38.279Z,2.27
2017-08-26T10:33:07.627Z,2.00
2017-08-26T10:35:37.214Z,2.37
2017-08-26T10:38:06.774Z,2.40
2017-08-26T10:40:35.902Z,2.50
2017-08-26T10:43:05.815Z,2.93
2017-08-26T10:45:34.996Z,2.57
2017-08-26T10:48:04.118Z,2.80
2017-08-26T10:50:33.564Z,2.40
2017-08-26T10:53:04.511Z,2.70
2017-08-26T10:55:33.494Z,2.90
2017-08-26T10:58:02.431Z,2.90
2017-08-26T11:00:31.374Z,2.80
2017-08-26T11:03:00.439Z,2.80
2017-08-26T11:05:30.255Z,2.73
2017-08-26T11:07:59.936Z,3.60
2017-08-26T11:10:28.901Z,3.40
2017-08-26T11:12:58.754Z,3.93
2017-08-26T11:15:27.775Z,4.23
2017-08-26T11:17:57.666Z,4.03
2017-08-26T11:20:26.664Z,4.53
2017-08-26T11:22:56.948Z,4.00
2017-08-26T11:25:25.914Z,5.80
2017-08-26T11:27:54.930Z,4.43
2017-08-26T11:30:23.861Z,4.40
2017-08-26T11:32:53.078Z,4.77
2017-08-26T11:35:22.913Z,4.60
2017-08-26T11:37:52.246Z,5.17
2017-08-26T11:40:21.284Z,5.93
2017-08-26T11:42:50.307Z,4.40
2017-08-26T11:45:19.440Z,5.87
2017-08-26T11:47:48.445Z,5.47
2017-08-26T11:50:20.529Z,4.80
2017-08-26T11:52:50.448Z,5.23
2017-08-26T11:55:19.798Z,6.00
2017-08-26T11:57:48.918Z,6.17
2017-08-26T12:00:18.123Z,5.20
2017-08-26T12:02:47.599Z,6.40
2017-08-26T12:05:16.714Z,6.53
2017-08-26T12:07:45.871Z,5.90
2017-08-26T12:10:15.237Z,5.47
2017-08-26T12:12:45.983Z,5.93
2017-08-26T12:15:15.060Z,5.23
2017-08-26T12:17:44.720Z,6.13
2017-08-26T12:20:13.815Z,5.23
2017-08-26T12:22:43.340Z,5.80
2017-08-26T12:25:12.288Z,4.87
2017-08-26T12:27:41.791Z,6.30
2017-08-26T12:30:10.946Z,6.23
2017-08-26T12:32:41.141Z,5.53
2017-08-26T12:35:10.191Z,6.33
2017-08-26T12:37:40.107Z,7.07
2017-08-26T12:40:10.344Z,6.03
2017-08-26T12:42:39.388Z,5.50
2017-08-26T12:45:08.595Z,5.93
2017-08-26T12:47:37.655Z,6.03
2017-08-26T12:50:06.713Z,6.40
2017-08-26T12:52:35.762Z,6.10
2017-08-26T12:55:04.842Z,7.03
2017-08-26T12:57:33.859Z,6.37
2017-08-26T13:00:02.923Z,6.93
2017-08-26T13:02:32.771Z,7.80
2017-08-26T13:05:02.518Z,6.57
2017-08-26T13:07:32.331Z,7.07
2017-08-26T13:10:01.420Z,8.10
2017-08-26T13:12:30.413Z,6.40
2017-08-26T13:15:00.173Z,6.07
2017-08-26T13:17:29.194Z,6.20
2017-08-26T13:19:58.868Z,5.87
2017-08-26T13:22:28.310Z,5.90
2017-08-26T13:24:58.218Z,6.03
2017-08-26T13:27:27.246Z,5.73
2017-08-26T13:29:57.181Z,6.97
2017-08-26T13:32:38.313Z,5.63
2017-08-26T13:35:07.339Z,6.77
2017-08-26T13:37:38.235Z,6.13
2017-08-26T13:40:07.354Z,6.27
2017-08-26T13:42:36.638Z,5.03
2017-08-26T13:45:05.784Z,6.47
2017-08-26T13:47:34.943Z,6.37
2017-08-26T13:50:04.036Z,6.10
2017-08-26T13:52:33.014Z,6.77
2017-08-26T13:55:01.944Z,6.60
2017-08-26T13:57:31.145Z,6.27
2017-08-26T14:00:00.254Z,6.33
2017-08-26T14:02:29.463Z,6.17
2017-08-26T14:04:59.020Z,6.20
2017-08-26T14:07:28.184Z,6.50
2017-08-26T14:09:58.825Z,5.90
2017-08-26T14:12:27.930Z,6.17
2017-08-26T14:14:57.828Z,6.23
2017-08-26T14:17:28.354Z,6.97
2017-08-26T14:19:57.480Z,6.83
2017-08-26T14:22:27.341Z,6.30
2017-08-26T14:24:57.046Z,7.47
2017-08-26T14:27:28.236Z,6.43
2017-08-26T14:29:57.990Z,6.77
2017-08-26T14:32:28.056Z,6.73
2017-08-26T14:34:57.161Z,6.17
2017-08-26T14:37:27.068Z,6.40
2017-08-26T14:39:56.456Z,7.00
2017-08-26T14:42:25.580Z,7.13
2017-08-26T14:44:55.640Z,7.87
2017-08-26T14:47:25.088Z,8.67
2017-08-26T14:49:55.153Z,7.80
2017-08-26T14:52:24.300Z,7.90
2017-08-26T14:54:53.552Z,8.03
2017-08-26T14:57:22.820Z,7.70
2017-08-26T14:59:52.963Z,8.40
2017-08-26T15:02:22.673Z,7.57
2017-08-26T15:04:51.792Z,7.90
2017-08-26T15:07:23.604Z,8.53
2017-08-26T15:09:52.690Z,7.50
2017-08-26T15:12:22.362Z,8.00
2017-08-26T15:14:51.491Z,7.33
2017-08-26T15:17:20.516Z,8.43
2017-08-26T15:19:49.544Z,9.00
2017-08-26T15:22:19.064Z,16.23
2017-08-26T15:24:48.169Z,12.80
2017-08-26T15:27:18.385Z,10.63
2017-08-26T15:29:47.543Z,12.50
2017-08-26T15:32:17.303Z,12.70
2017-08-26T15:34:46.514Z,12.57
2017-08-26T15:37:16.411Z,11.10
2017-08-26T15:39:45.486Z,13.37
2017-08-26T15:42:14.412Z,13.40
2017-08-26T15:44:44.328Z,12.57
2017-08-26T15:47:14.237Z,10.20
2017-08-26T15:49:43.280Z,10.80
2017-08-26T15:52:12.291Z,9.93
2017-08-26T15:54:41.303Z,10.33
2017-08-26T15:57:10.407Z,10.80
2017-08-26T15:59:39.724Z,10.90
2017-08-26T16:02:09.681Z,12.50
2017-08-26T16:04:39.611Z,11.70
2017-08-26T16:07:12.026Z,11.73
2017-08-26T16:09:41.044Z,11.70
2017-08-26T16:12:10.188Z,12.73
2017-08-26T16:14:39.637Z,13.20
2017-08-26T16:17:11.216Z,13.00
2017-08-26T16:19:40.239Z,13.00
2017-08-26T16:22:09.492Z,13.53
2017-08-26T16:24:39.675Z,13.83
2017-08-26T16:27:08.669Z,12.30
2017-08-26T16:29:37.976Z,11.63
2017-08-26T16:32:07.278Z,12.37
2017-08-26T16:34:36.363Z,11.33
2017-08-26T16:37:05.442Z,12.00
2017-08-26T16:39:34.444Z,14.47
2017-08-26T16:42:03.549Z,13.27
2017-08-26T16:44:32.564Z,14.70
2017-08-26T16:47:01.572Z,12.60
2017-08-26T16:49:30.625Z,12.10
2017-08-26T16:52:00.744Z,12.47
2017-08-26T16:54:29.815Z,12.50
2017-08-26T16:56:59.211Z,11.10
2017-08-26T16:59:30.109Z,10.40
2017-08-26T17:02:04.300Z,12.63
2017-08-26T17:04:34.117Z,12.23
2017-08-26T17:07:03.429Z,12.83
2017-08-26T17:09:32.721Z,12.00
2017-08-26T17:12:01.768Z,12.40
2017-08-26T17:14:31.420Z,12.30
2017-08-26T17:17:02.614Z,13.23
2017-08-26T17:19:32.636Z,13.30
2017-08-26T17:22:02.281Z,12.27
2017-08-26T17:24:31.303Z,12.50
2017-08-26T17:27:00.379Z,12.43
2017-08-26T17:29:29.627Z,12.60
2017-08-26T17:31:58.743Z,11.73
2017-08-26T17:34:27.865Z,12.57
2017-08-26T17:36:56.935Z,13.20
2017-08-26T17:39:26.627Z,13.47
2017-08-26T17:42:58.510Z,14.37
2017-08-26T17:45:27.716Z,13.90
2017-08-26T17:47:56.864Z,13.93
2017-08-26T17:50:26.073Z,13.40
2017-08-26T17:52:55.640Z,13.43
2017-08-26T17:55:32.894Z,13.57
2017-08-26T17:58:02.002Z,14.30
2017-08-26T18:00:31.886Z,13.57
2017-08-26T18:03:01.851Z,14.10
2017-08-26T18:05:32.493Z,14.67
2017-08-26T18:08:01.706Z,14.73
2017-08-26T18:10:30.863Z,15.13
2017-08-26T18:12:59.925Z,15.00
2017-08-26T18:15:29.425Z,14.57
2017-08-26T18:17:58.692Z,15.50
2017-08-26T18:20:27.929Z,15.13
2017-08-26T18:22:57.803Z,15.67
2017-08-26T18:25:26.746Z,15.90
2017-08-26T18:27:56.934Z,15.97
2017-08-26T18:30:27.015Z,18.13
2017-08-26T18:32:57.988Z,16.87
2017-08-26T18:35:29.184Z,16.30
2017-08-26T18:37:58.337Z,16.63
2017-08-26T18:40:27.624Z,17.20
2017-08-26T18:42:56.670Z,17.40
2017-08-26T18:45:25.887Z,17.23
2017-08-26T18:47:54.918Z,18.00
2017-08-26T18:50:24.702Z,18.40
2017-08-26T18:52:54.448Z,18.90
2017-08-26T18:55:23.604Z,18.60
2017-08-26T18:57:52.994Z,18.90
2017-08-26T19:00:22.194Z,19.77
2017-08-26T19:02:51.518Z,20.83
2017-08-26T19:05:21.764Z,19.20
2017-08-26T19:07:53.078Z,21.53
2017-08-26T19:10:22.365Z,20.03
2017-08-26T19:12:51.356Z,22.30
2017-08-26T19:15:20.432Z,21.73
2017-08-26T19:17:49.755Z,23.90
2017-08-26T19:20:18.967Z,23.50
2017-08-26T19:22:55.163Z,23.10
2017-08-26T19:25:29.834Z,22.53
2017-08-26T19:30:36.886Z,22.87
2017-08-26T19:33:06.478Z,22.67
2017-08-26T19:35:36.184Z,23.70
2017-08-26T19:38:10.729Z,24.20
2017-08-26T19:40:41.916Z,27.70
2017-08-26T19:43:11.378Z,27.00
2017-08-26T19:45:40.671Z,27.70
2017-08-26T19:48:09.805Z,28.60
2017-08-26T19:50:39.010Z,26.80
2017-08-26T19:53:09.844Z,28.53
2017-08-26T19:55:38.895Z,26.20
2017-08-26T19:58:07.990Z,28.90
2017-08-26T20:00:37.302Z,30.03
2017-08-26T20:03:07.242Z,29.97
2017-08-26T20:05:36.249Z,32.27
2017-08-26T20:08:05.152Z,31.00
2017-08-26T20:10:34.445Z,31.87
2017-08-26T20:13:03.442Z,32.73
2017-08-26T20:15:33.238Z,33.67
2017-08-26T20:18:02.183Z,33.00
2017-08-26T20:20:31.139Z,32.77
2017-08-26T20:23:02.479Z,32.47
2017-08-26T20:25:32.115Z,35.70
2017-08-26T20:28:02.627Z,35.50
2017-08-26T20:30:32.657Z,39.40
2017-08-26T20:33:01.613Z,42.20
2017-08-26T20:35:30.715Z,43.27
2017-08-26T20:37:59.759Z,45.20
2017-08-26T20:40:28.707Z,43.30
2017-08-26T20:42:57.962Z,43.47
2017-08-26T20:45:27.801Z,46.53
2017-08-26T20:47:56.755Z,46.83
2017-08-26T20:50:27.724Z,44.53
2017-08-26T20:52:56.718Z,49.90
2017-08-26T20:55:25.730Z,48.70
2017-08-26T20:57:55.170Z,47.20
2017-08-26T21:00:25.051Z,47.13
2017-08-26T21:02:54.714Z,46.67
2017-08-26T21:05:23.842Z,48.00
2017-08-26T21:07:53.614Z,45.63
2017-08-26T21:10:24.092Z,49.57
2017-08-26T21:12:53.145Z,45.93
2017-08-26T21:15:22.351Z,50.57
2017-08-26T21:17:51.692Z,48.60
2017-08-26T21:20:20.656Z,49.70
2017-08-26T21:22:49.759Z,47.60
2017-08-26T21:25:18.791Z,46.20
2017-08-26T21:27:48.566Z,48.07
2017-08-26T21:30:17.664Z,45.93
2017-08-26T21:32:46.564Z,45.27
2017-08-26T21:35:15.928Z,42.83
2017-08-26T21:37:44.851Z,45.80
2017-08-26T21:40:13.807Z,45.20
2017-08-26T21:42:42.757Z,46.67
2017-08-26T21:45:11.737Z,45.10
2017-08-26T21:47:40.895Z,45.53
2017-08-26T21:50:10.535Z,42.67
2017-08-26T21:52:39.473Z,42.83
2017-08-26T21:55:08.464Z,44.37
2017-08-26T21:57:38.142Z,42.53
2017-08-26T22:01:09.622Z,42.70
2017-08-26T22:03:38.982Z,40.00
2017-08-26T22:06:08.064Z,41.90
2017-08-26T22:52:18.376Z,36.25
2017-08-26T22:54:47.497Z,37.00
2017-08-26T22:57:16.454Z,39.08
2017-08-26T22:59:45.446Z,36.43
2017-08-26T23:03:33.758Z,37.22
2017-08-26T23:06:02.699Z,37.45
2017-08-26T23:08:37.028Z,36.20
2017-08-26T23:11:05.990Z,34.70
2017-08-26T23:13:35.011Z,33.55
2017-08-26T23:16:04.004Z,34.00
2017-08-26T23:18:32.997Z,39.85
2017-08-26T23:21:01.997Z,37.55
2017-08-26T23:23:30.980Z,38.65
2017-08-26T23:25:59.956Z,36.63
2017-08-26T23:28:30.363Z,36.45
2017-08-26T23:30:59.330Z,41.65
2017-08-26T23:33:28.517Z,40.37
2017-08-26T23:35:57.474Z,42.58
2017-08-26T23:38:26.422Z,41.27
2017-08-26T23:40:55.335Z,42.93
2017-08-26T23:43:25.041Z,41.47
2017-08-26T23:45:54.559Z,41.50
2017-08-26T23:48:23.540Z,43.50
2017-08-26T23:50:52.481Z,42.40
2017-08-26T23:53:21.514Z,43.63
2017-08-26T23:55:50.467Z,44.35
2017-08-26T23:58:19.479Z,42.22
